createdAt,value
2022-09-27T00:03:56.384Z,65.25
2022-09-27T00:08:59.499Z,65.34
2022-09-27T00:14:02.424Z,65.26
2022-09-27T00:19:08.555Z,65.39
2022-09-27T00:24:13.585Z,65.30
2022-09-27T00:29:30.443Z,65.60
2022-09-27T00:34:34.801Z,65.70
2022-09-27T00:39:38.246Z,65.66
2022-09-27T00:45:04.922Z,66.15
2022-09-27T00:50:15.525Z,66.35
2022-09-27T00:55:22.354Z,66.51
2022-09-27T01:00:25.274Z,67.09
2022-09-27T01:05:30.251Z,67.18
2022-09-27T01:10:38.452Z,67.41
2022-09-27T01:15:45.345Z,67.55
2022-09-27T01:21:08.710Z,67.69
2022-09-27T01:26:14.819Z,68.08
2022-09-27T01:31:23.559Z,68.10
2022-09-27T01:36:30.252Z,68.25
2022-09-27T01:41:38.087Z,68.34
2022-09-27T01:46:56.383Z,68.39
2022-09-27T01:52:23.668Z,68.47
2022-09-27T01:57:29.048Z,68.84
2022-09-27T02:02:37.199Z,68.73
2022-09-27T02:08:22.566Z,69.11
2022-09-27T02:13:32.833Z,69.11
2022-09-27T02:19:06.918Z,69.48
2022-09-27T02:24:14.752Z,69.46
2022-09-27T02:29:20.356Z,69.86
2022-09-27T02:34:32.560Z,70.01
2022-09-27T02:39:35.811Z,70.15
2022-09-27T02:44:42.091Z,70.27
2022-09-27T02:49:58.859Z,70.30
2022-09-27T02:55:26.257Z,70.38
2022-09-27T03:00:39.545Z,70.54
2022-09-27T03:06:05.123Z,70.64
2022-09-27T03:12:37.735Z,70.77
2022-09-27T03:17:40.724Z,70.92
2022-09-27T03:23:03.536Z,70.94
2022-09-27T03:28:06.565Z,71.14
2022-09-27T03:33:10.619Z,71.27
2022-09-27T03:38:22.898Z,71.26
2022-09-27T03:43:25.957Z,71.54
2022-09-27T03:48:33.560Z,71.60
2022-09-27T03:53:37.793Z,71.77
2022-09-27T03:58:40.776Z,71.73
2022-09-27T04:03:43.771Z,71.84
2022-09-27T04:09:17.315Z,72.24
2022-09-27T04:14:31.800Z,72.32
2022-09-27T04:19:52.990Z,72.67
2022-09-27T04:24:57.555Z,72.98
2022-09-27T04:30:11.597Z,73.11
2022-09-27T04:35:52.005Z,73.25
2022-09-27T04:40:56.446Z,73.23
2022-09-27T04:45:59.667Z,73.48
2022-09-27T04:51:03.954Z,73.73
2022-09-27T04:56:08.498Z,73.93
2022-09-27T05:01:11.989Z,74.05
2022-09-27T05:06:40.094Z,74.03
2022-09-27T05:11:54.237Z,74.41
2022-09-27T05:17:09.941Z,74.67
2022-09-27T05:22:32.696Z,74.79
2022-09-27T05:27:36.782Z,74.96
2022-09-27T05:32:41.585Z,75.03
2022-09-27T05:38:04.677Z,75.05
2022-09-27T05:43:12.370Z,75.23
2022-09-27T05:48:15.229Z,75.52
2022-09-27T05:53:28.931Z,75.65
2022-09-27T05:58:34.386Z,75.62
2022-09-27T06:03:48.276Z,75.60
2022-09-27T06:08:51.063Z,75.63
2022-09-27T06:13:56.874Z,75.58
2022-09-27T06:19:00.779Z,75.71
2022-09-27T06:24:04.139Z,75.61
2022-09-27T06:29:11.780Z,75.52
2022-09-27T06:34:19.781Z,75.44
2022-09-27T06:39:22.850Z,75.78
2022-09-27T06:44:39.982Z,75.72
2022-09-27T06:50:05.604Z,75.75
2022-09-27T06:55:10.773Z,75.90
2022-09-27T07:00:26.779Z,75.95
2022-09-27T07:05:56.792Z,75.98
2022-09-27T07:11:15.542Z,75.87
2022-09-27T07:16:20.075Z,75.83
2022-09-27T07:21:22.907Z,76.27
2022-09-27T07:26:26.279Z,76.54
2022-09-27T07:31:30.559Z,76.54
2022-09-27T07:36:33.655Z,76.51
2022-09-27T07:41:39.166Z,76.93
2022-09-27T07:46:43.358Z,77.07
2022-09-27T07:51:59.066Z,77.43
2022-09-27T07:57:17.363Z,77.51
2022-09-27T08:02:28.023Z,77.68
2022-09-27T08:07:32.876Z,77.82
2022-09-27T08:12:36.674Z,77.13
2022-09-27T08:17:41.021Z,76.91
2022-09-27T08:22:48.847Z,76.75
2022-09-27T08:28:01.908Z,76.99
2022-09-27T08:33:19.664Z,77.23
2022-09-27T08:38:23.767Z,77.30
2022-09-27T08:43:36.685Z,77.10
2022-09-27T08:48:44.130Z,76.93
2022-09-27T08:53:51.809Z,77.33
2022-09-27T08:59:01.868Z,77.63
2022-09-27T09:04:11.225Z,78.12
2022-09-27T09:09:21.662Z,78.20
2022-09-27T09:15:13.105Z,77.32
2022-09-27T09:20:25.391Z,77.12
2022-09-27T09:25:33.654Z,77.39
2022-09-27T09:30:42.953Z,77.41
2022-09-27T09:35:51.404Z,77.63
2022-09-27T09:40:59.692Z,78.16
2022-09-27T09:46:09.796Z,79.14
2022-09-27T09:51:17.726Z,79.03
2022-09-27T09:56:24.472Z,79.07
2022-09-27T10:01:29.768Z,78.48
2022-09-27T10:06:34.126Z,78.51
2022-09-27T10:11:43.992Z,78.06
2022-09-27T10:16:55.486Z,78.17
2022-09-27T10:22:03.565Z,78.84
2022-09-27T10:27:06.906Z,79.75
2022-09-27T10:32:27.464Z,80.52
2022-09-27T10:38:15.110Z,80.64
2022-09-27T10:43:32.878Z,79.24
2022-09-27T10:49:55.215Z,78.48
2022-09-27T10:55:23.113Z,78.17
2022-09-27T11:00:31.323Z,78.86
2022-09-27T11:05:38.227Z,78.67
2022-09-27T11:10:42.319Z,78.43
2022-09-27T11:15:57.282Z,79.09
2022-09-27T11:21:10.485Z,79.05
2022-09-27T11:26:27.024Z,77.95
2022-09-27T11:31:37.501Z,78.00
2022-09-27T11:36:54.712Z,78.04
2022-09-27T11:42:43.259Z,77.88
2022-09-27T11:47:57.524Z,78.63
2022-09-27T11:53:11.246Z,83.73
2022-09-27T11:58:22.859Z,87.21
2022-09-27T12:03:49.613Z,89.11
2022-09-27T12:09:02.571Z,90.68
2022-09-27T12:14:11.130Z,91.84
2022-09-27T12:19:19.251Z,92.47
2022-09-27T12:24:30.761Z,92.74
2022-09-27T12:29:45.167Z,93.32
2022-09-27T12:34:52.334Z,93.91
2022-09-27T12:39:57.748Z,94.34
2022-09-27T12:45:11.548Z,94.84
2022-09-27T12:50:19.959Z,95.19
2022-09-27T12:55:42.697Z,94.29
2022-09-27T13:00:55.970Z,88.80
2022-09-27T13:06:31.782Z,87.41
2022-09-27T13:11:44.195Z,90.03
2022-09-27T13:16:49.390Z,93.08
2022-09-27T13:21:59.631Z,95.68
2022-09-27T13:27:39.709Z,98.18
2022-09-27T13:33:24.105Z,100.00
2022-09-27T13:38:36.811Z,100.00
2022-09-27T13:43:48.668Z,100.00
2022-09-27T13:49:04.838Z,100.00
2022-09-27T13:54:51.593Z,100.00
2022-09-27T13:59:58.877Z,100.00
2022-09-27T14:05:34.249Z,100.00
2022-09-27T14:10:37.434Z,99.98
2022-09-27T14:15:41.437Z,100.00
2022-09-27T14:20:47.119Z,100.00
2022-09-27T14:26:23.214Z,100.00
2022-09-27T14:31:26.755Z,100.00
2022-09-27T14:37:08.820Z,100.00
2022-09-27T14:42:28.500Z,100.00
2022-09-27T14:47:31.130Z,100.00
2022-09-27T14:52:35.537Z,100.00
2022-09-27T15:04:38.344Z,98.41
2022-09-27T15:10:27.185Z,96.99
2022-09-27T15:15:32.795Z,92.64
2022-09-27T15:20:36.815Z,89.74
2022-09-27T15:25:42.673Z,97.15
2022-09-27T15:30:52.464Z,100.00
2022-09-27T15:35:57.611Z,100.00
2022-09-27T15:41:11.022Z,100.00
2022-09-27T15:46:31.413Z,100.00
2022-09-27T15:51:42.279Z,100.00
2022-09-27T15:56:44.978Z,100.00
2022-09-27T16:01:49.128Z,100.00
2022-09-27T16:06:51.809Z,100.00
2022-09-27T16:11:54.435Z,100.00
2022-09-27T16:17:00.044Z,100.00
2022-09-27T16:22:03.650Z,100.00
2022-09-27T16:27:06.624Z,100.00
2022-09-27T16:32:11.137Z,100.00
2022-09-27T16:37:14.057Z,100.00
2022-09-27T16:42:16.937Z,100.00
2022-09-27T16:47:23.615Z,100.00
2022-09-27T16:52:26.274Z,100.00
2022-09-27T16:57:29.212Z,100.00
2022-09-27T17:02:33.583Z,100.00
2022-09-27T17:07:36.216Z,100.00
2022-09-27T17:12:38.861Z,100.00
2022-09-27T17:17:45.119Z,100.00
2022-09-27T17:22:47.829Z,100.00
2022-09-27T17:27:50.495Z,100.00
2022-09-27T17:32:54.548Z,100.00
2022-09-27T17:37:57.254Z,100.00
2022-09-27T17:42:59.911Z,100.00
2022-09-27T17:48:21.537Z,100.00
2022-09-27T17:53:24.438Z,100.00
2022-09-27T17:58:27.120Z,100.00
2022-09-27T18:03:31.297Z,100.00
2022-09-27T18:08:33.971Z,100.00
2022-09-27T18:13:40.498Z,100.00
2022-09-27T18:18:48.115Z,100.00
2022-09-27T18:23:52.063Z,100.00
2022-09-27T18:28:55.754Z,100.00
2022-09-27T18:34:00.169Z,100.00
2022-09-27T18:39:05.532Z,100.00
2022-09-27T18:44:08.171Z,100.00
2022-09-27T18:49:13.393Z,100.00
2022-09-27T18:54:18.449Z,100.00
2022-09-27T18:59:23.529Z,100.00
2022-09-27T19:04:27.696Z,100.00
2022-09-27T19:09:31.249Z,100.00
2022-09-27T19:14:34.821Z,100.00
2022-09-27T19:19:38.787Z,100.00
2022-09-27T19:24:41.422Z,100.00
2022-09-27T19:29:44.365Z,100.00
2022-09-27T19:34:48.339Z,100.00
2022-09-27T19:39:55.283Z,100.00
2022-09-27T19:44:58.988Z,100.00
2022-09-27T19:50:02.954Z,100.00
2022-09-27T19:55:06.600Z,100.00
2022-09-27T20:00:11.267Z,100.00
2022-09-27T20:05:15.776Z,100.00
2022-09-27T20:10:18.555Z,100.00
2022-09-27T20:15:21.242Z,100.00
2022-09-27T20:20:25.509Z,100.00
2022-09-27T20:25:29.388Z,100.00
2022-09-27T20:30:32.379Z,100.00
2022-09-27T20:35:36.452Z,100.00
2022-09-27T20:40:39.211Z,100.00
2022-09-27T20:45:43.192Z,100.00
2022-09-27T20:50:47.282Z,100.00
2022-09-27T20:55:50.718Z,100.00
2022-09-27T21:00:53.583Z,100.00
2022-09-27T21:05:58.017Z,100.00
2022-09-27T21:11:08.846Z,100.00
2022-09-27T21:16:14.433Z,100.00
2022-09-27T21:21:19.522Z,100.00
2022-09-27T21:26:23.285Z,100.00
2022-09-27T21:31:27.289Z,100.00
2022-09-27T21:36:33.035Z,100.00
2022-09-27T21:41:36.104Z,100.00
2022-09-27T21:46:40.579Z,100.00
2022-09-27T21:51:44.764Z,100.00
2022-09-27T21:56:47.420Z,100.00
2022-09-27T22:01:50.104Z,100.00
2022-09-27T22:06:54.443Z,100.00
2022-09-27T22:11:57.048Z,100.00
2022-09-27T22:16:59.693Z,100.00
2022-09-27T22:22:03.653Z,100.00
2022-09-27T22:27:06.286Z,99.98
2022-09-27T22:32:09.245Z,99.91
2022-09-27T22:37:16.636Z,99.68
2022-09-27T22:42:20.607Z,99.42
2022-09-27T22:47:23.234Z,99.49
2022-09-27T22:52:27.211Z,99.50
2022-09-27T22:57:29.887Z,99.20
2022-09-27T23:02:32.582Z,98.98
2022-09-27T23:07:36.578Z,98.55
2022-09-27T23:12:39.199Z,98.47
2022-09-27T23:17:41.913Z,98.18
2022-09-27T23:22:46.129Z,97.86
2022-09-27T23:27:50.184Z,97.62
2022-09-27T23:32:54.282Z,97.70
2022-09-27T23:37:58.737Z,97.24
2022-09-27T23:43:01.996Z,97.00
2022-09-27T23:48:05.224Z,96.79
2022-09-27T23:53:09.127Z,96.50
2022-09-27T23:58:11.685Z,96.68
